sensor_id;sensor_type;location;lat;lon;timestamp;P1;durP1;ratioP1;P2;durP2;ratioP2
29916;SDS011;16786;49.466;11.068;2022-12-07T00:01:26;12.93;;;8.88;;
29916;SDS011;16786;49.466;11.068;2022-12-07T00:03:55;13.75;;;8.73;;
29916;SDS011;16786;49.466;11.068;2022-12-07T00:06:27;14.25;;;9.40;;
29916;SDS011;16786;49.466;11.068;2022-12-07T00:08:54;13.65;;;9.43;;
29916;SDS011;16786;49.466;11.068;2022-12-07T00:11:22;14.65;;;9.27;;
29916;SDS011;16786;49.466;11.068;2022-12-07T00:13:51;14.93;;;9.48;;
29916;SDS011;16786;49.466;11.068;2022-12-07T00:16:22;14.00;;;9.60;;
29916;SDS011;16786;49.466;11.068;2022-12-07T00:18:51;13.98;;;9.32;;
29916;SDS011;16786;49.466;11.068;2022-12-07T00:21:24;14.50;;;9.88;;
29916;SDS011;16786;49.466;11.068;2022-12-07T00:23:56;14.35;;;8.73;;
29916;SDS011;16786;49.466;11.068;2022-12-07T00:26:25;14.30;;;10.18;;
29916;SDS011;16786;49.466;11.068;2022-12-07T00:28:57;14.27;;;10.00;;
29916;SDS011;16786;49.466;11.068;2022-12-07T00:31:27;12.95;;;9.52;;
29916;SDS011;16786;49.466;11.068;2022-12-07T00:33:57;14.05;;;9.73;;
29916;SDS011;16786;49.466;11.068;2022-12-07T00:36:25;13.95;;;9.60;;
29916;SDS011;16786;49.466;11.068;2022-12-07T00:38:54;14.13;;;8.95;;
29916;SDS011;16786;49.466;11.068;2022-12-07T00:41:24;15.32;;;9.60;;
29916;SDS011;16786;49.466;11.068;2022-12-07T00:43:53;16.13;;;10.52;;
29916;SDS011;16786;49.466;11.068;2022-12-07T00:46:21;17.38;;;9.95;;
29916;SDS011;16786;49.466;11.068;2022-12-07T00:48:49;13.70;;;9.82;;
29916;SDS011;16786;49.466;11.068;2022-12-07T00:51:18;14.70;;;9.77;;
29916;SDS011;16786;49.466;11.068;2022-12-07T00:53:47;18.10;;;11.40;;
29916;SDS011;16786;49.466;11.068;2022-12-07T00:56:22;15.48;;;10.63;;
29916;SDS011;16786;49.466;11.068;2022-12-07T00:58:52;19.02;;;11.45;;
29916;SDS011;16786;49.466;11.068;2022-12-07T01:01:25;17.73;;;10.80;;
29916;SDS011;16786;49.466;11.068;2022-12-07T01:03:53;15.43;;;10.80;;
29916;SDS011;16786;49.466;11.068;2022-12-07T01:06:25;15.93;;;10.40;;
29916;SDS011;16786;49.466;11.068;2022-12-07T01:08:52;15.50;;;10.20;;
29916;SDS011;16786;49.466;11.068;2022-12-07T01:11:21;15.43;;;10.75;;
29916;SDS011;16786;49.466;11.068;2022-12-07T01:13:51;16.80;;;11.27;;
29916;SDS011;16786;49.466;11.068;2022-12-07T01:16:21;19.00;;;11.45;;
29916;SDS011;16786;49.466;11.068;2022-12-07T01:18:50;15.00;;;10.40;;
29916;SDS011;16786;49.466;11.068;2022-12-07T01:21:22;15.38;;;11.02;;
29916;SDS011;16786;49.466;11.068;2022-12-07T01:23:51;18.75;;;11.35;;
29916;SDS011;16786;49.466;11.068;2022-12-07T01:26:20;20.08;;;11.77;;
29916;SDS011;16786;49.466;11.068;2022-12-07T01:28:49;17.08;;;11.15;;
29916;SDS011;16786;49.466;11.068;2022-12-07T01:31:18;17.20;;;11.68;;
29916;SDS011;16786;49.466;11.068;2022-12-07T01:33:47;20.40;;;12.23;;
29916;SDS011;16786;49.466;11.068;2022-12-07T01:36:18;18.88;;;11.57;;
29916;SDS011;16786;49.466;11.068;2022-12-07T01:38:47;18.45;;;12.10;;
29916;SDS011;16786;49.466;11.068;2022-12-07T01:41:20;17.23;;;11.02;;
29916;SDS011;16786;49.466;11.068;2022-12-07T01:46:52;18.98;;;12.07;;
29916;SDS011;16786;49.466;11.068;2022-12-07T01:49:31;18.10;;;12.02;;
29916;SDS011;16786;49.466;11.068;2022-12-07T01:52:17;17.17;;;11.55;;
29916;SDS011;16786;49.466;11.068;2022-12-07T01:54:51;18.25;;;11.85;;
29916;SDS011;16786;49.466;11.068;2022-12-07T01:57:40;19.52;;;12.20;;
29916;SDS011;16786;49.466;11.068;2022-12-07T02:00:11;21.10;;;12.65;;
29916;SDS011;16786;49.466;11.068;2022-12-07T02:02:42;20.13;;;11.88;;
29916;SDS011;16786;49.466;11.068;2022-12-07T02:07:38;20.13;;;11.90;;
29916;SDS011;16786;49.466;11.068;2022-12-07T02:10:19;18.33;;;11.80;;
29916;SDS011;16786;49.466;11.068;2022-12-07T02:12:51;17.10;;;11.97;;
29916;SDS011;16786;49.466;11.068;2022-12-07T02:15:26;17.30;;;11.57;;
29916;SDS011;16786;49.466;11.068;2022-12-07T02:18:05;19.88;;;11.98;;
29916;SDS011;16786;49.466;11.068;2022-12-07T02:21:16;20.95;;;12.18;;
29916;SDS011;16786;49.466;11.068;2022-12-07T02:29:57;21.20;;;12.30;;
29916;SDS011;16786;49.466;11.068;2022-12-07T02:35:05;19.90;;;12.13;;
29916;SDS011;16786;49.466;11.068;2022-12-07T02:37:42;19.42;;;12.02;;
29916;SDS011;16786;49.466;11.068;2022-12-07T02:43:16;21.13;;;13.13;;
29916;SDS011;16786;49.466;11.068;2022-12-07T02:45:45;20.42;;;12.32;;
29916;SDS011;16786;49.466;11.068;2022-12-07T02:48:14;20.67;;;12.50;;
29916;SDS011;16786;49.466;11.068;2022-12-07T02:50:44;20.50;;;13.10;;
29916;SDS011;16786;49.466;11.068;2022-12-07T02:53:37;19.15;;;11.65;;
29916;SDS011;16786;49.466;11.068;2022-12-07T03:09:50;23.50;;;14.45;;
29916;SDS011;16786;49.466;11.068;2022-12-07T03:12:37;23.38;;;13.73;;
29916;SDS011;16786;49.466;11.068;2022-12-07T03:15:31;19.83;;;11.27;;
29916;SDS011;16786;49.466;11.068;2022-12-07T03:18:02;25.05;;;14.20;;
29916;SDS011;16786;49.466;11.068;2022-12-07T03:20:32;25.25;;;14.38;;
29916;SDS011;16786;49.466;11.068;2022-12-07T03:23:02;23.98;;;14.82;;
29916;SDS011;16786;49.466;11.068;2022-12-07T03:25:33;27.63;;;14.35;;
29916;SDS011;16786;49.466;11.068;2022-12-07T03:28:02;22.98;;;13.68;;
29916;SDS011;16786;49.466;11.068;2022-12-07T03:31:18;23.58;;;14.10;;
29916;SDS011;16786;49.466;11.068;2022-12-07T03:33:47;23.42;;;13.45;;
29916;SDS011;16786;49.466;11.068;2022-12-07T03:41:49;26.60;;;14.52;;
29916;SDS011;16786;49.466;11.068;2022-12-07T03:44:17;22.13;;;13.93;;
29916;SDS011;16786;49.466;11.068;2022-12-07T03:52:45;25.52;;;15.00;;
29916;SDS011;16786;49.466;11.068;2022-12-07T03:55:22;25.67;;;14.57;;
29916;SDS011;16786;49.466;11.068;2022-12-07T03:58:02;25.25;;;14.45;;
29916;SDS011;16786;49.466;11.068;2022-12-07T04:00:35;23.27;;;14.10;;
29916;SDS011;16786;49.466;11.068;2022-12-07T04:03:02;27.45;;;15.40;;
29916;SDS011;16786;49.466;11.068;2022-12-07T04:05:30;26.38;;;14.10;;
29916;SDS011;16786;49.466;11.068;2022-12-07T04:07:57;25.90;;;14.32;;
29916;SDS011;16786;49.466;11.068;2022-12-07T04:10:24;26.08;;;14.95;;
29916;SDS011;16786;49.466;11.068;2022-12-07T04:12:52;29.15;;;16.17;;
29916;SDS011;16786;49.466;11.068;2022-12-07T04:15:19;27.10;;;15.38;;
29916;SDS011;16786;49.466;11.068;2022-12-07T04:17:46;27.70;;;15.38;;
29916;SDS011;16786;49.466;11.068;2022-12-07T04:20:14;25.85;;;14.60;;
29916;SDS011;16786;49.466;11.068;2022-12-07T04:22:41;25.45;;;14.75;;
29916;SDS011;16786;49.466;11.068;2022-12-07T04:25:08;30.52;;;15.98;;
29916;SDS011;16786;49.466;11.068;2022-12-07T04:27:36;27.60;;;16.08;;
29916;SDS011;16786;49.466;11.068;2022-12-07T04:30:03;28.00;;;16.10;;
29916;SDS011;16786;49.466;11.068;2022-12-07T04:32:31;27.25;;;15.80;;
29916;SDS011;16786;49.466;11.068;2022-12-07T04:34:58;26.25;;;15.25;;
29916;SDS011;16786;49.466;11.068;2022-12-07T04:37:26;27.00;;;15.27;;
29916;SDS011;16786;49.466;11.068;2022-12-07T04:39:53;25.92;;;15.50;;
29916;SDS011;16786;49.466;11.068;2022-12-07T04:42:20;28.73;;;15.48;;
29916;SDS011;16786;49.466;11.068;2022-12-07T04:44:47;28.90;;;16.15;;
29916;SDS011;16786;49.466;11.068;2022-12-07T04:47:15;27.73;;;16.00;;
29916;SDS011;16786;49.466;11.068;2022-12-07T04:49:42;29.08;;;16.50;;
29916;SDS011;16786;49.466;11.068;2022-12-07T04:52:10;28.27;;;16.13;;
29916;SDS011;16786;49.466;11.068;2022-12-07T04:54:37;24.52;;;14.73;;
29916;SDS011;16786;49.466;11.068;2022-12-07T04:57:04;27.50;;;15.18;;
29916;SDS011;16786;49.466;11.068;2022-12-07T04:59:31;26.65;;;15.57;;
29916;SDS011;16786;49.466;11.068;2022-12-07T05:01:59;26.30;;;14.75;;
29916;SDS011;16786;49.466;11.068;2022-12-07T05:04:26;27.27;;;15.68;;
29916;SDS011;16786;49.466;11.068;2022-12-07T05:06:53;24.42;;;15.02;;
29916;SDS011;16786;49.466;11.068;2022-12-07T05:09:21;28.73;;;16.50;;
29916;SDS011;16786;49.466;11.068;2022-12-07T05:11:48;27.50;;;15.93;;
29916;SDS011;16786;49.466;11.068;2022-12-07T05:14:16;25.40;;;15.27;;
29916;SDS011;16786;49.466;11.068;2022-12-07T05:16:46;31.73;;;17.17;;
29916;SDS011;16786;49.466;11.068;2022-12-07T05:19:15;26.15;;;15.55;;
29916;SDS011;16786;49.466;11.068;2022-12-07T05:21:44;28.52;;;14.57;;
29916;SDS011;16786;49.466;11.068;2022-12-07T05:24:11;27.55;;;16.10;;
29916;SDS011;16786;49.466;11.068;2022-12-07T05:26:41;28.20;;;15.80;;
29916;SDS011;16786;49.466;11.068;2022-12-07T05:29:10;31.92;;;16.88;;
29916;SDS011;16786;49.466;11.068;2022-12-07T05:31:42;30.13;;;17.00;;
29916;SDS011;16786;49.466;11.068;2022-12-07T05:34:10;29.67;;;16.33;;
29916;SDS011;16786;49.466;11.068;2022-12-07T05:36:38;30.08;;;17.38;;
29916;SDS011;16786;49.466;11.068;2022-12-07T05:39:05;30.67;;;17.38;;
29916;SDS011;16786;49.466;11.068;2022-12-07T05:41:33;31.88;;;16.35;;
29916;SDS011;16786;49.466;11.068;2022-12-07T05:44:19;31.52;;;15.70;;
29916;SDS011;16786;49.466;11.068;2022-12-07T05:46:46;32.20;;;18.08;;
29916;SDS011;16786;49.466;11.068;2022-12-07T05:49:14;30.92;;;17.30;;
29916;SDS011;16786;49.466;11.068;2022-12-07T05:51:41;29.55;;;16.88;;
29916;SDS011;16786;49.466;11.068;2022-12-07T05:54:08;27.02;;;16.00;;
29916;SDS011;16786;49.466;11.068;2022-12-07T05:56:36;33.65;;;17.17;;
29916;SDS011;16786;49.466;11.068;2022-12-07T05:59:03;29.38;;;16.92;;
29916;SDS011;16786;49.466;11.068;2022-12-07T06:02:11;33.38;;;17.48;;
29916;SDS011;16786;49.466;11.068;2022-12-07T06:04:39;36.58;;;17.13;;
29916;SDS011;16786;49.466;11.068;2022-12-07T06:07:09;34.53;;;18.33;;
29916;SDS011;16786;49.466;11.068;2022-12-07T06:09:37;33.45;;;17.48;;
29916;SDS011;16786;49.466;11.068;2022-12-07T06:12:05;31.67;;;15.93;;
29916;SDS011;16786;49.466;11.068;2022-12-07T06:14:51;34.95;;;18.75;;
29916;SDS011;16786;49.466;11.068;2022-12-07T06:17:19;31.98;;;17.27;;
29916;SDS011;16786;49.466;11.068;2022-12-07T06:19:46;34.10;;;18.25;;
29916;SDS011;16786;49.466;11.068;2022-12-07T06:22:13;34.25;;;18.25;;
29916;SDS011;16786;49.466;11.068;2022-12-07T06:24:43;33.35;;;18.45;;
29916;SDS011;16786;49.466;11.068;2022-12-07T06:27:10;33.55;;;17.38;;
29916;SDS011;16786;49.466;11.068;2022-12-07T06:29:37;35.55;;;17.95;;
29916;SDS011;16786;49.466;11.068;2022-12-07T06:32:05;31.88;;;16.85;;
29916;SDS011;16786;49.466;11.068;2022-12-07T06:34:32;31.10;;;16.73;;
29916;SDS011;16786;49.466;11.068;2022-12-07T06:37:00;37.60;;;19.05;;
29916;SDS011;16786;49.466;11.068;2022-12-07T06:39:28;34.28;;;18.60;;
29916;SDS011;16786;49.466;11.068;2022-12-07T06:41:56;34.00;;;17.77;;
29916;SDS011;16786;49.466;11.068;2022-12-07T06:44:24;32.42;;;18.45;;
29916;SDS011;16786;49.466;11.068;2022-12-07T06:46:51;35.35;;;17.42;;
29916;SDS011;16786;49.466;11.068;2022-12-07T06:49:38;31.60;;;17.90;;
29916;SDS011;16786;49.466;11.068;2022-12-07T06:52:05;37.13;;;18.65;;
29916;SDS011;16786;49.466;11.068;2022-12-07T06:54:32;35.58;;;19.20;;
29916;SDS011;16786;49.466;11.068;2022-12-07T06:57:00;34.33;;;17.83;;
29916;SDS011;16786;49.466;11.068;2022-12-07T06:59:27;34.05;;;17.67;;
29916;SDS011;16786;49.466;11.068;2022-12-07T07:01:54;36.05;;;18.25;;
29916;SDS011;16786;49.466;11.068;2022-12-07T07:04:21;34.78;;;18.02;;
29916;SDS011;16786;49.466;11.068;2022-12-07T07:06:49;36.58;;;19.05;;
29916;SDS011;16786;49.466;11.068;2022-12-07T07:09:23;34.28;;;16.65;;
29916;SDS011;16786;49.466;11.068;2022-12-07T07:11:51;34.15;;;17.55;;
29916;SDS011;16786;49.466;11.068;2022-12-07T07:14:18;31.35;;;17.38;;
29916;SDS011;16786;49.466;11.068;2022-12-07T07:16:46;32.78;;;18.63;;
29916;SDS011;16786;49.466;11.068;2022-12-07T07:19:13;35.95;;;18.77;;
29916;SDS011;16786;49.466;11.068;2022-12-07T07:21:40;33.20;;;17.75;;
29916;SDS011;16786;49.466;11.068;2022-12-07T07:24:08;33.40;;;17.58;;
29916;SDS011;16786;49.466;11.068;2022-12-07T07:26:35;34.67;;;18.20;;
29916;SDS011;16786;49.466;11.068;2022-12-07T07:29:02;35.22;;;18.08;;
29916;SDS011;16786;49.466;11.068;2022-12-07T07:31:30;32.40;;;17.13;;
29916;SDS011;16786;49.466;11.068;2022-12-07T07:33:57;29.58;;;16.50;;
29916;SDS011;16786;49.466;11.068;2022-12-07T07:36:24;32.55;;;16.50;;
29916;SDS011;16786;49.466;11.068;2022-12-07T07:38:52;32.38;;;17.67;;
29916;SDS011;16786;49.466;11.068;2022-12-07T07:41:19;34.25;;;16.75;;
29916;SDS011;16786;49.466;11.068;2022-12-07T07:43:46;29.70;;;16.63;;
29916;SDS011;16786;49.466;11.068;2022-12-07T07:46:13;29.88;;;17.13;;
29916;SDS011;16786;49.466;11.068;2022-12-07T07:48:41;31.48;;;17.20;;
29916;SDS011;16786;49.466;11.068;2022-12-07T07:51:08;31.02;;;17.50;;
29916;SDS011;16786;49.466;11.068;2022-12-07T07:53:35;29.52;;;16.52;;
29916;SDS011;16786;49.466;11.068;2022-12-07T07:56:03;37.75;;;17.42;;
29916;SDS011;16786;49.466;11.068;2022-12-07T07:58:30;31.98;;;16.60;;
29916;SDS011;16786;49.466;11.068;2022-12-07T08:01:03;31.17;;;16.58;;
29916;SDS011;16786;49.466;11.068;2022-12-07T08:03:31;32.45;;;17.23;;
29916;SDS011;16786;49.466;11.068;2022-12-07T08:05:58;31.10;;;16.33;;
29916;SDS011;16786;49.466;11.068;2022-12-07T08:08:25;33.53;;;16.77;;
29916;SDS011;16786;49.466;11.068;2022-12-07T08:10:53;32.70;;;17.30;;
29916;SDS011;16786;49.466;11.068;2022-12-07T08:13:20;33.83;;;16.77;;
29916;SDS011;16786;49.466;11.068;2022-12-07T08:15:56;30.75;;;16.45;;
29916;SDS011;16786;49.466;11.068;2022-12-07T08:18:23;32.85;;;17.67;;
29916;SDS011;16786;49.466;11.068;2022-12-07T08:20:50;28.27;;;16.05;;
29916;SDS011;16786;49.466;11.068;2022-12-07T08:23:18;30.38;;;15.27;;
29916;SDS011;16786;49.466;11.068;2022-12-07T08:25:48;31.17;;;16.15;;
29916;SDS011;16786;49.466;11.068;2022-12-07T08:28:15;33.13;;;17.38;;
29916;SDS011;16786;49.466;11.068;2022-12-07T08:30:43;32.40;;;16.70;;
29916;SDS011;16786;49.466;11.068;2022-12-07T08:33:10;31.55;;;15.85;;
29916;SDS011;16786;49.466;11.068;2022-12-07T08:35:38;29.45;;;16.00;;
29916;SDS011;16786;49.466;11.068;2022-12-07T08:38:05;31.88;;;16.83;;
29916;SDS011;16786;49.466;11.068;2022-12-07T08:40:32;29.10;;;15.77;;
29916;SDS011;16786;49.466;11.068;2022-12-07T08:42:59;28.33;;;15.40;;
29916;SDS011;16786;49.466;11.068;2022-12-07T08:45:27;30.35;;;16.25;;
29916;SDS011;16786;49.466;11.068;2022-12-07T08:47:56;27.38;;;14.70;;
29916;SDS011;16786;49.466;11.068;2022-12-07T08:50:33;28.70;;;15.70;;
29916;SDS011;16786;49.466;11.068;2022-12-07T08:53:01;29.85;;;15.90;;
29916;SDS011;16786;49.466;11.068;2022-12-07T08:55:31;28.90;;;15.85;;
29916;SDS011;16786;49.466;11.068;2022-12-07T08:57:59;32.33;;;16.40;;
29916;SDS011;16786;49.466;11.068;2022-12-07T09:00:29;27.05;;;14.68;;
29916;SDS011;16786;49.466;11.068;2022-12-07T09:02:56;26.83;;;14.35;;
29916;SDS011;16786;49.466;11.068;2022-12-07T09:05:23;22.40;;;13.50;;
29916;SDS011;16786;49.466;11.068;2022-12-07T09:07:51;25.05;;;13.57;;
29916;SDS011;16786;49.466;11.068;2022-12-07T09:10:24;23.85;;;12.55;;
29916;SDS011;16786;49.466;11.068;2022-12-07T09:12:52;21.98;;;12.07;;
29916;SDS011;16786;49.466;11.068;2022-12-07T09:15:20;25.58;;;13.75;;
29916;SDS011;16786;49.466;11.068;2022-12-07T09:17:47;21.85;;;12.55;;
29916;SDS011;16786;49.466;11.068;2022-12-07T09:20:14;23.83;;;13.25;;
29916;SDS011;16786;49.466;11.068;2022-12-07T09:22:42;23.73;;;12.73;;
29916;SDS011;16786;49.466;11.068;2022-12-07T09:25:09;25.77;;;11.68;;
29916;SDS011;16786;49.466;11.068;2022-12-07T09:27:36;24.65;;;12.68;;
29916;SDS011;16786;49.466;11.068;2022-12-07T09:30:04;25.98;;;12.82;;
29916;SDS011;16786;49.466;11.068;2022-12-07T09:32:35;24.33;;;13.32;;
29916;SDS011;16786;49.466;11.068;2022-12-07T09:35:03;24.25;;;13.10;;
29916;SDS011;16786;49.466;11.068;2022-12-07T09:37:30;25.15;;;12.77;;
29916;SDS011;16786;49.466;11.068;2022-12-07T09:40:02;22.92;;;12.40;;
29916;SDS011;16786;49.466;11.068;2022-12-07T09:47:32;22.98;;;12.23;;
29916;SDS011;16786;49.466;11.068;2022-12-07T09:50:04;23.80;;;11.97;;
29916;SDS011;16786;49.466;11.068;2022-12-07T09:52:43;22.30;;;12.07;;
29916;SDS011;16786;49.466;11.068;2022-12-07T09:55:12;23.25;;;12.10;;
29916;SDS011;16786;49.466;11.068;2022-12-07T09:57:42;20.52;;;11.15;;
29916;SDS011;16786;49.466;11.068;2022-12-07T10:00:11;23.27;;;12.30;;
29916;SDS011;16786;49.466;11.068;2022-12-07T10:02:42;23.00;;;11.68;;
29916;SDS011;16786;49.466;11.068;2022-12-07T10:05:14;22.42;;;11.75;;
29916;SDS011;16786;49.466;11.068;2022-12-07T10:07:50;22.95;;;11.60;;
29916;SDS011;16786;49.466;11.068;2022-12-07T10:10:19;19.10;;;11.38;;
29916;SDS011;16786;49.466;11.068;2022-12-07T10:15:42;20.73;;;11.85;;
29916;SDS011;16786;49.466;11.068;2022-12-07T10:18:17;25.60;;;12.48;;
29916;SDS011;16786;49.466;11.068;2022-12-07T10:24:03;23.77;;;12.52;;
29916;SDS011;16786;49.466;11.068;2022-12-07T10:29:33;20.40;;;11.35;;
29916;SDS011;16786;49.466;11.068;2022-12-07T10:32:05;19.17;;;11.55;;
29916;SDS011;16786;49.466;11.068;2022-12-07T10:34:59;21.73;;;11.70;;
29916;SDS011;16786;49.466;11.068;2022-12-07T10:37:48;21.23;;;11.57;;
29916;SDS011;16786;49.466;11.068;2022-12-07T10:40:35;24.25;;;12.90;;
29916;SDS011;16786;49.466;11.068;2022-12-07T10:46:04;20.17;;;11.77;;
29916;SDS011;16786;49.466;11.068;2022-12-07T10:59:55;18.10;;;11.27;;
29916;SDS011;16786;49.466;11.068;2022-12-07T11:02:33;18.63;;;10.70;;
29916;SDS011;16786;49.466;11.068;2022-12-07T11:05:31;19.88;;;11.98;;
29916;SDS011;16786;49.466;11.068;2022-12-07T11:08:31;18.58;;;11.52;;
29916;SDS011;16786;49.466;11.068;2022-12-07T11:16:48;18.55;;;10.90;;
29916;SDS011;16786;49.466;11.068;2022-12-07T11:25:02;21.83;;;12.30;;
29916;SDS011;16786;49.466;11.068;2022-12-07T11:38:55;21.92;;;11.85;;
29916;SDS011;16786;49.466;11.068;2022-12-07T11:41:31;21.58;;;12.95;;
29916;SDS011;16786;49.466;11.068;2022-12-07T11:44:14;23.98;;;13.10;;
29916;SDS011;16786;49.466;11.068;2022-12-07T11:52:35;25.02;;;13.52;;
29916;SDS011;16786;49.466;11.068;2022-12-07T11:55:13;22.73;;;13.23;;
29916;SDS011;16786;49.466;11.068;2022-12-07T11:57:50;21.23;;;12.23;;
29916;SDS011;16786;49.466;11.068;2022-12-07T12:00:23;21.65;;;12.60;;
29916;SDS011;16786;49.466;11.068;2022-12-07T12:03:09;21.45;;;12.80;;
29916;SDS011;16786;49.466;11.068;2022-12-07T12:08:14;18.38;;;11.57;;
29916;SDS011;16786;49.466;11.068;2022-12-07T12:25:02;21.52;;;12.48;;
29916;SDS011;16786;49.466;11.068;2022-12-07T12:27:42;22.47;;;13.00;;
29916;SDS011;16786;49.466;11.068;2022-12-07T12:40:57;24.25;;;13.35;;
29916;SDS011;16786;49.466;11.068;2022-12-07T12:51:47;20.83;;;12.60;;
29916;SDS011;16786;49.466;11.068;2022-12-07T13:01:49;21.80;;;12.52;;
29916;SDS011;16786;49.466;11.068;2022-12-07T13:07:11;20.92;;;12.40;;
29916;SDS011;16786;49.466;11.068;2022-12-07T13:09:42;20.85;;;12.30;;
29916;SDS011;16786;49.466;11.068;2022-12-07T13:12:13;19.40;;;12.27;;
29916;SDS011;16786;49.466;11.068;2022-12-07T13:14:55;19.92;;;12.43;;
29916;SDS011;16786;49.466;11.068;2022-12-07T13:22:43;21.55;;;11.20;;
29916;SDS011;16786;49.466;11.068;2022-12-07T13:30:52;20.00;;;11.50;;
29916;SDS011;16786;49.466;11.068;2022-12-07T13:33:23;21.20;;;11.50;;
29916;SDS011;16786;49.466;11.068;2022-12-07T13:35:54;21.75;;;13.20;;
29916;SDS011;16786;49.466;11.068;2022-12-07T13:38:30;19.25;;;12.40;;
29916;SDS011;16786;49.466;11.068;2022-12-07T13:41:01;18.65;;;12.27;;
29916;SDS011;16786;49.466;11.068;2022-12-07T13:43:44;18.40;;;11.57;;
29916;SDS011;16786;49.466;11.068;2022-12-07T13:46:20;18.17;;;11.32;;
29916;SDS011;16786;49.466;11.068;2022-12-07T13:48:53;18.40;;;11.63;;
29916;SDS011;16786;49.466;11.068;2022-12-07T13:51:26;22.33;;;11.88;;
29916;SDS011;16786;49.466;11.068;2022-12-07T13:54:01;16.98;;;10.82;;
29916;SDS011;16786;49.466;11.068;2022-12-07T13:56:35;20.70;;;11.50;;
29916;SDS011;16786;49.466;11.068;2022-12-07T13:59:04;18.35;;;11.35;;
29916;SDS011;16786;49.466;11.068;2022-12-07T14:01:37;20.48;;;11.65;;
29916;SDS011;16786;49.466;11.068;2022-12-07T14:06:56;18.08;;;10.27;;
29916;SDS011;16786;49.466;11.068;2022-12-07T14:09:25;21.08;;;12.07;;
29916;SDS011;16786;49.466;11.068;2022-12-07T14:11:55;16.48;;;11.25;;
29916;SDS011;16786;49.466;11.068;2022-12-07T14:14:28;18.05;;;10.15;;
29916;SDS011;16786;49.466;11.068;2022-12-07T14:17:12;18.25;;;11.15;;
29916;SDS011;16786;49.466;11.068;2022-12-07T14:19:50;18.95;;;10.70;;
29916;SDS011;16786;49.466;11.068;2022-12-07T14:22:25;20.15;;;11.63;;
29916;SDS011;16786;49.466;11.068;2022-12-07T14:27:39;18.40;;;10.32;;
29916;SDS011;16786;49.466;11.068;2022-12-07T14:30:16;18.13;;;11.00;;
29916;SDS011;16786;49.466;11.068;2022-12-07T14:32:44;14.93;;;9.43;;
29916;SDS011;16786;49.466;11.068;2022-12-07T14:35:16;17.60;;;9.45;;
29916;SDS011;16786;49.466;11.068;2022-12-07T14:37:46;18.95;;;10.52;;
29916;SDS011;16786;49.466;11.068;2022-12-07T14:40:19;15.63;;;9.48;;
29916;SDS011;16786;49.466;11.068;2022-12-07T14:42:53;14.95;;;9.75;;
29916;SDS011;16786;49.466;11.068;2022-12-07T14:45:29;18.05;;;11.02;;
29916;SDS011;16786;49.466;11.068;2022-12-07T14:47:56;16.02;;;11.00;;
29916;SDS011;16786;49.466;11.068;2022-12-07T14:50:45;16.50;;;9.07;;
29916;SDS011;16786;49.466;11.068;2022-12-07T14:53:37;13.63;;;8.15;;
29916;SDS011;16786;49.466;11.068;2022-12-07T14:56:09;14.80;;;8.00;;
29916;SDS011;16786;49.466;11.068;2022-12-07T14:58:36;13.85;;;8.07;;
29916;SDS011;16786;49.466;11.068;2022-12-07T15:01:03;12.02;;;8.10;;
29916;SDS011;16786;49.466;11.068;2022-12-07T15:03:31;14.77;;;8.27;;
29916;SDS011;16786;49.466;11.068;2022-12-07T15:06:01;14.73;;;8.70;;
29916;SDS011;16786;49.466;11.068;2022-12-07T15:08:30;17.27;;;9.80;;
29916;SDS011;16786;49.466;11.068;2022-12-07T15:10:57;16.27;;;9.73;;
29916;SDS011;16786;49.466;11.068;2022-12-07T15:13:24;18.58;;;10.43;;
29916;SDS011;16786;49.466;11.068;2022-12-07T15:16:11;21.50;;;11.07;;
29916;SDS011;16786;49.466;11.068;2022-12-07T15:18:41;16.88;;;10.82;;
29916;SDS011;16786;49.466;11.068;2022-12-07T15:21:28;19.08;;;11.80;;
29916;SDS011;16786;49.466;11.068;2022-12-07T15:23:56;22.45;;;12.10;;
29916;SDS011;16786;49.466;11.068;2022-12-07T15:26:23;25.00;;;13.98;;
29916;SDS011;16786;49.466;11.068;2022-12-07T15:28:52;24.52;;;14.18;;
29916;SDS011;16786;49.466;11.068;2022-12-07T15:31:20;24.85;;;15.00;;
29916;SDS011;16786;49.466;11.068;2022-12-07T15:34:07;28.73;;;15.70;;
29916;SDS011;16786;49.466;11.068;2022-12-07T15:36:35;24.35;;;14.65;;
29916;SDS011;16786;49.466;11.068;2022-12-07T15:39:02;31.98;;;15.02;;
29916;SDS011;16786;49.466;11.068;2022-12-07T15:41:40;24.58;;;14.93;;
29916;SDS011;16786;49.466;11.068;2022-12-07T15:44:09;29.13;;;15.60;;
29916;SDS011;16786;49.466;11.068;2022-12-07T15:46:58;26.20;;;14.75;;
29916;SDS011;16786;49.466;11.068;2022-12-07T15:49:26;26.33;;;14.90;;
29916;SDS011;16786;49.466;11.068;2022-12-07T15:51:55;26.55;;;15.45;;
29916;SDS011;16786;49.466;11.068;2022-12-07T15:54:23;27.40;;;16.70;;
29916;SDS011;16786;49.466;11.068;2022-12-07T15:56:52;28.80;;;15.88;;
29916;SDS011;16786;49.466;11.068;2022-12-07T15:59:20;25.70;;;15.55;;
29916;SDS011;16786;49.466;11.068;2022-12-07T16:01:48;28.02;;;15.65;;
29916;SDS011;16786;49.466;11.068;2022-12-07T16:04:16;25.67;;;14.55;;
29916;SDS011;16786;49.466;11.068;2022-12-07T16:06:43;24.88;;;14.15;;
29916;SDS011;16786;49.466;11.068;2022-12-07T16:09:11;23.75;;;15.32;;
29916;SDS011;16786;49.466;11.068;2022-12-07T16:11:39;27.35;;;15.32;;
29916;SDS011;16786;49.466;11.068;2022-12-07T16:14:06;24.92;;;14.68;;
29916;SDS011;16786;49.466;11.068;2022-12-07T16:16:34;23.52;;;13.65;;
29916;SDS011;16786;49.466;11.068;2022-12-07T16:19:01;24.33;;;15.65;;
29916;SDS011;16786;49.466;11.068;2022-12-07T16:21:29;23.00;;;13.63;;
29916;SDS011;16786;49.466;11.068;2022-12-07T16:23:57;24.40;;;14.50;;
29916;SDS011;16786;49.466;11.068;2022-12-07T16:26:25;24.20;;;14.48;;
29916;SDS011;16786;49.466;11.068;2022-12-07T16:28:53;24.85;;;14.38;;
29916;SDS011;16786;49.466;11.068;2022-12-07T16:31:23;24.92;;;13.93;;
29916;SDS011;16786;49.466;11.068;2022-12-07T16:33:56;26.73;;;14.38;;
29916;SDS011;16786;49.466;11.068;2022-12-07T16:36:25;22.25;;;13.80;;
29916;SDS011;16786;49.466;11.068;2022-12-07T16:39:13;24.73;;;13.27;;
29916;SDS011;16786;49.466;11.068;2022-12-07T16:41:41;22.75;;;14.10;;
29916;SDS011;16786;49.466;11.068;2022-12-07T16:44:10;21.92;;;13.98;;
29916;SDS011;16786;49.466;11.068;2022-12-07T16:46:39;25.73;;;14.98;;
29916;SDS011;16786;49.466;11.068;2022-12-07T16:49:06;26.45;;;15.25;;
29916;SDS011;16786;49.466;11.068;2022-12-07T16:51:38;26.25;;;14.82;;
29916;SDS011;16786;49.466;11.068;2022-12-07T16:54:06;30.77;;;16.33;;
29916;SDS011;16786;49.466;11.068;2022-12-07T16:56:33;27.42;;;16.10;;
29916;SDS011;16786;49.466;11.068;2022-12-07T16:59:00;28.85;;;16.33;;
29916;SDS011;16786;49.466;11.068;2022-12-07T17:01:28;28.00;;;16.02;;
29916;SDS011;16786;49.466;11.068;2022-12-07T17:03:58;28.38;;;15.52;;
29916;SDS011;16786;49.466;11.068;2022-12-07T17:06:26;30.00;;;16.52;;
29916;SDS011;16786;49.466;11.068;2022-12-07T17:08:55;26.58;;;15.20;;
29916;SDS011;16786;49.466;11.068;2022-12-07T17:11:26;29.80;;;16.42;;
29916;SDS011;16786;49.466;11.068;2022-12-07T17:13:55;28.88;;;17.20;;
29916;SDS011;16786;49.466;11.068;2022-12-07T17:16:40;27.10;;;14.77;;